This is the latest recevied weather packets stored in our database for station/object ON3FV. If no packets are shown the sender has not sent any weather packets the latest 10 day(s).
| Time | Temp. | Humidity | Pressure | Rain* | Wind** | Luminosity | Snow |
|---|---|---|---|---|---|---|---|
| 1778108324 | 9.44° C | 87% | 1012.2 hPa | - | - | - | - |
| 1778107722 | 9.44° C | 86% | 1012.1 hPa | - | - | - | - |
| 1778105013 | 10° C | 85% | 1011.9 hPa | - | - | - | - |
| 1778102304 | 10.56° C | 84% | 1011.7 hPa | - | - | - | - |
| 1778100498 | 11.11° C | 83% | 1011.5 hPa | - | - | - | - |
| 1778099896 | 11.11° C | 83% | 1011.4 hPa | - | - | - | - |
| 1778097789 | 11.67° C | 80% | 1011.1 hPa | - | - | - | - |
| 1778096284 | 12.22° C | 79% | 1010.9 hPa | - | - | - | - |
| 1778095702 | 12.22° C | 78% | 1010.8 hPa | - | - | - | - |
| 1778095080 | 12.78° C | 77% | 1010.7 hPa | - | - | - | - |
| 1778093575 | 13.33° C | 75% | 1010.4 hPa | - | - | - | - |
| 1778093012 | 13.33° C | 75% | 1010.4 hPa | - | - | - | - |
| 1778089963 | 14.44° C | 74% | 1009.7 hPa | - | - | - | - |
| 1778087254 | 14.44° C | 73% | 1009.4 hPa | - | - | - | - |
| 1778086952 | 15° C | 73% | 1009.3 hPa | - | - | - | - |
| 1778086050 | 15.56° C | 73% | 1009.3 hPa | - | - | - | - |
| 1778085167 | 15.56° C | 73% | 1009.2 hPa | - | - | - | - |
| 1778082739 | 15.56° C | 75% | 1009 hPa | - | - | - | - |
| 1778080933 | 15° C | 77% | 1009 hPa | - | - | - | - |
| 1778076438 | 14.44° C | 80% | 1009.1 hPa | - | - | - | - |
| 1778075534 | 14.44° C | 79% | 1009.2 hPa | - | - | - | - |
| 1778074912 | 14.44° C | 79% | 1009.2 hPa | - | - | - | - |
| 1778070706 | 13.89° C | 81% | 1008.9 hPa | - | - | - | - |
| 1778070397 | 13.89° C | 82% | 1008.9 hPa | - | - | - | - |
| 1778067388 | 12.78° C | 85% | 1009 hPa | - | - | - | - |
* Rain since midnight (hover to see other rain measurements)
** Current wind speed in m/s (hover to see current wind gust speed)